Time;durP1;ratioP1;P1;durP2;ratioP2;P2;SDS_P1;SDS_P2;PMS_P1;PMS_P2;Temp;Humidity;BMP_temperature;BMP_pressure;BME280_temperature;BME280_humidity;BME280_pressure;Samples;Min_cycle;Max_cycle;Signal;HPM_P1;HPM_P2
2022/04/03 00:00:25;;;;;;;4.00;2.50;;;4.40;60.20;;;;;;5052084;28;20228;-63
2022/04/03 00:02:52;;;;;;;4.10;3.70;;;4.40;60.30;;;;;;5052237;28;20568;-64
2022/04/03 00:05:19;;;;;;;6.35;4.10;;;4.40;60.30;;;;;;5052721;28;20229;-64
2022/04/03 00:07:46;;;;;;;3.72;2.92;;;4.40;60.40;;;;;;5052661;28;20713;-64
2022/04/03 00:10:14;;;;;;;4.75;3.55;;;4.40;60.60;;;;;;5059396;28;20229;-64
2022/04/03 00:12:46;;;;;;;5.03;3.15;;;4.30;60.50;;;;;;5056405;28;20221;-65
2022/04/03 00:15:13;;;;;;;5.38;3.72;;;4.40;60.70;;;;;;5052886;28;20221;-64
2022/04/03 00:17:40;;;;;;;3.92;3.05;;;4.30;60.70;;;;;;5052378;28;20244;-64
2022/04/03 00:20:08;;;;;;;5.43;3.45;;;4.30;60.90;;;;;;5052715;28;20695;-64
2022/04/03 00:22:35;;;;;;;3.85;3.38;;;4.30;61.00;;;;;;5051615;28;20323;-65
2022/04/03 00:25:05;;;;;;;3.35;3.05;;;4.30;60.90;;;;;;5042001;28;20221;-65
2022/04/03 00:27:32;;;;;;;4.35;3.95;;;4.30;61.00;;;;;;5050404;28;20236;-65
2022/04/03 00:30:00;;;;;;;3.33;3.03;;;4.30;61.10;;;;;;5052109;28;20229;-64
2022/04/03 00:32:27;;;;;;;4.43;3.55;;;4.30;61.40;;;;;;5051857;28;20231;-66
2022/04/03 00:34:54;;;;;;;4.53;3.60;;;4.20;61.30;;;;;;5052467;28;20221;-64
2022/04/03 00:37:21;;;;;;;5.95;3.55;;;4.20;61.30;;;;;;5052147;28;20563;-64
2022/04/03 00:39:48;;;;;;;4.60;3.53;;;4.20;61.40;;;;;;5052536;28;20229;-64
2022/04/03 00:42:14;;;;;;;4.25;3.85;;;4.20;61.40;;;;;;5043846;28;20233;-64
2022/04/03 00:44:42;;;;;;;6.63;4.18;;;4.20;61.50;;;;;;5052263;28;20244;-63
2022/04/03 00:47:12;;;;;;;4.90;4.10;;;4.20;61.60;;;;;;5052293;28;20233;-64
2022/04/03 00:49:39;;;;;;;4.38;3.85;;;4.20;61.70;;;;;;5051865;28;20585;-64
2022/04/03 00:52:06;;;;;;;7.72;5.78;;;4.20;61.80;;;;;;5052323;28;20232;-64
2022/04/03 00:54:33;;;;;;;4.60;3.88;;;4.20;61.90;;;;;;5051232;28;20244;-64
2022/04/03 00:57:00;;;;;;;6.60;5.07;;;4.20;61.70;;;;;;5051850;28;20236;-64
2022/04/03 00:59:28;;;;;;;5.00;4.40;;;4.20;61.60;;;;;;5051383;28;20221;-64
2022/04/03 01:01:55;;;;;;;6.78;4.30;;;4.20;61.80;;;;;;5051918;28;20236;-64
2022/04/03 01:04:23;;;;;;;3.75;3.10;;;4.10;61.90;;;;;;5052173;28;20236;-64
2022/04/03 01:06:51;;;;;;;5.03;3.40;;;4.10;61.80;;;;;;5050646;28;20229;-65
2022/04/03 01:09:18;;;;;;;3.53;3.22;;;4.00;61.90;;;;;;5050925;28;20252;-65
2022/04/03 01:11:46;;;;;;;2.85;2.65;;;4.00;62.00;;;;;;5050256;28;20225;-64
2022/04/03 01:14:12;;;;;;;3.78;3.47;;;4.00;62.10;;;;;;5050910;28;20228;-64
2022/04/03 01:16:39;;;;;;;4.93;3.90;;;4.00;62.20;;;;;;5050688;28;20838;-64
2022/04/03 01:19:07;;;;;;;3.97;3.63;;;3.90;62.10;;;;;;5051464;28;20221;-65
2022/04/03 01:21:35;;;;;;;3.92;3.60;;;3.90;62.20;;;;;;5050933;28;20225;-64
2022/04/03 01:24:02;;;;;;;6.10;4.15;;;3.90;62.40;;;;;;5051530;28;20220;-64
2022/04/03 01:26:31;;;;;;;4.22;3.88;;;3.90;62.60;;;;;;5051573;28;20224;-64
2022/04/03 01:28:58;;;;;;;5.63;3.75;;;3.80;62.60;;;;;;5051927;28;20217;-64
2022/04/03 01:31:25;;;;;;;4.95;3.30;;;3.80;62.70;;;;;;5047931;28;20244;-64
2022/04/03 01:33:52;;;;;;;4.38;3.97;;;3.80;62.80;;;;;;5038531;28;20221;-64
2022/04/03 01:36:19;;;;;;;4.40;4.00;;;3.80;63.00;;;;;;5051823;28;20228;-64
2022/04/03 01:38:45;;;;;;;4.10;3.05;;;3.70;63.10;;;;;;5051558;28;20614;-64
2022/04/03 01:41:13;;;;;;;4.82;3.28;;;3.70;63.40;;;;;;5054536;28;20225;-64
2022/04/03 01:43:41;;;;;;;5.43;3.47;;;3.70;63.40;;;;;;5054944;28;20225;-65
2022/04/03 01:46:08;;;;;;;9.40;6.35;;;3.70;63.40;;;;;;5055617;28;20568;-64
2022/04/03 01:48:34;;;;;;;10.18;5.63;;;3.70;63.60;;;;;;5055177;28;20582;-64
2022/04/03 01:51:01;;;;;;;3.78;3.38;;;3.70;63.60;;;;;;5055526;28;20232;-64
2022/04/03 01:53:28;;;;;;;4.78;2.80;;;3.70;63.80;;;;;;5054405;28;20225;-64
2022/04/03 01:55:59;;;;;;;3.53;3.13;;;3.70;63.80;;;;;;5055181;28;20221;-64
2022/04/03 01:58:26;;;;;;;3.30;2.78;;;3.70;63.60;;;;;;5055362;28;20225;-64
2022/04/03 02:00:54;;;;;;;3.50;3.20;;;3.70;63.60;;;;;;5054604;28;20236;-65
2022/04/03 02:03:21;;;;;;;3.22;2.92;;;3.70;63.60;;;;;;5055094;28;20225;-64
2022/04/03 02:05:48;;;;;;;6.07;4.45;;;3.70;63.70;;;;;;5054722;28;20690;-65
2022/04/03 02:08:15;;;;;;;5.95;3.65;;;3.70;63.90;;;;;;5054076;28;20714;-63
2022/04/03 02:10:42;;;;;;;4.32;3.08;;;3.70;64.10;;;;;;5061903;28;20233;-64
2022/04/03 02:13:09;;;;;;;4.18;3.55;;;3.80;64.20;;;;;;5055044;28;20225;-64
2022/04/03 02:15:36;;;;;;;5.18;2.50;;;3.80;64.00;;;;;;5054232;28;20548;-64
2022/04/03 02:18:05;;;;;;;3.08;2.88;;;3.80;63.80;;;;;;5055180;28;20221;-64
2022/04/03 02:20:32;;;;;;;6.20;3.28;;;3.90;63.50;;;;;;5054420;28;20359;-64
2022/04/03 02:22:59;;;;;;;4.38;2.97;;;3.90;63.50;;;;;;5054753;28;20566;-64
2022/04/03 02:25:26;;;;;;;3.28;2.90;;;3.90;63.50;;;;;;5054824;28;20225;-64
2022/04/03 02:27:53;;;;;;;14.27;9.52;;;4.00;63.50;;;;;;5053840;28;20548;-64
2022/04/03 02:30:20;;;;;;;4.60;4.05;;;4.00;63.50;;;;;;5054640;28;20225;-64
2022/04/03 02:32:47;;;;;;;3.35;3.15;;;4.00;63.60;;;;;;5053963;28;20243;-64
2022/04/03 02:35:16;;;;;;;3.70;3.40;;;4.00;63.40;;;;;;5053473;28;20221;-65
2022/04/03 02:37:43;;;;;;;3.03;2.42;;;4.00;63.20;;;;;;5046015;28;20541;-64
2022/04/03 02:40:12;;;;;;;3.67;3.38;;;4.10;63.10;;;;;;5054639;28;20232;-64
2022/04/03 02:42:39;;;;;;;4.50;3.10;;;4.10;62.90;;;;;;5046271;28;20228;-64
2022/04/03 02:45:07;;;;;;;4.63;4.05;;;4.10;62.90;;;;;;5054566;28;20644;-64
2022/04/03 02:47:34;;;;;;;5.65;4.30;;;4.10;62.90;;;;;;5052249;28;20217;-64
2022/04/03 02:50:01;;;;;;;4.82;4.43;;;4.10;62.90;;;;;;5040919;28;20221;-65
2022/04/03 02:52:30;;;;;;;3.35;3.05;;;4.20;62.90;;;;;;5053750;28;20225;-65
2022/04/03 02:54:57;;;;;;;4.38;3.83;;;4.20;62.60;;;;;;5053761;28;20228;-65
2022/04/03 02:57:24;;;;;;;3.35;2.50;;;4.20;62.50;;;;;;5054211;28;20234;-65
2022/04/03 02:59:51;;;;;;;3.25;2.95;;;4.20;62.30;;;;;;5053836;28;20238;-65
2022/04/03 03:02:18;;;;;;;5.70;5.10;;;4.20;62.60;;;;;;5054018;28;20232;-64
2022/04/03 03:04:45;;;;;;;6.88;5.50;;;4.10;62.80;;;;;;5053634;28;20225;-64
2022/04/03 03:07:12;;;;;;;6.32;5.13;;;4.10;63.20;;;;;;5052936;28;20217;-65
2022/04/03 03:09:40;;;;;;;6.20;5.47;;;4.20;63.40;;;;;;5055390;28;20225;-64
2022/04/03 03:12:08;;;;;;;6.38;5.00;;;4.20;63.40;;;;;;5058646;28;20236;-64
2022/04/03 03:14:35;;;;;;;6.07;5.40;;;4.20;63.50;;;;;;5053727;28;20251;-64
2022/04/03 03:17:03;;;;;;;9.43;7.07;;;4.20;63.70;;;;;;5049533;28;20221;-65
2022/04/03 03:19:30;;;;;;;8.13;7.00;;;4.20;63.70;;;;;;5053676;28;20245;-65
2022/04/03 03:21:57;;;;;;;8.32;6.90;;;4.20;64.00;;;;;;5053236;28;20237;-65
2022/04/03 03:24:23;;;;;;;10.82;6.65;;;4.20;64.00;;;;;;5053734;28;20229;-65
2022/04/03 03:26:52;;;;;;;6.40;4.97;;;4.20;64.10;;;;;;5053046;28;20229;-64
2022/04/03 03:29:18;;;;;;;8.65;5.30;;;4.20;64.00;;;;;;5053864;28;20217;-64
2022/04/03 03:31:45;;;;;;;4.05;3.47;;;4.30;64.20;;;;;;5052915;28;20237;-64
2022/04/03 03:34:12;;;;;;;5.03;3.72;;;4.30;64.00;;;;;;5053481;28;20225;-64
2022/04/03 03:36:39;;;;;;;6.10;4.05;;;4.40;63.80;;;;;;5053034;28;20694;-64
2022/04/03 03:39:05;;;;;;;5.07;2.88;;;4.30;63.70;;;;;;5053621;28;20221;-64
2022/04/03 03:41:32;;;;;;;3.88;3.47;;;4.30;63.70;;;;;;5047750;28;20225;-64
2022/04/03 03:44:06;;;;;;;4.85;3.45;;;4.30;63.70;;;;;;5052110;28;20303;-63
2022/04/03 03:46:33;;;;;;;6.47;3.25;;;4.30;63.60;;;;;;5040185;28;20247;-65
2022/04/03 03:49:00;;;;;;;3.95;3.55;;;4.30;63.60;;;;;;5052703;28;20225;-63
2022/04/03 03:51:27;;;;;;;3.88;3.58;;;4.30;63.40;;;;;;5053276;28;20834;-64
2022/04/03 03:53:54;;;;;;;4.38;3.60;;;4.40;63.40;;;;;;5052737;28;20248;-64
2022/04/03 03:56:21;;;;;;;6.90;4.38;;;4.40;63.20;;;;;;5052964;28;20227;-65
2022/04/03 03:58:48;;;;;;;2.92;2.72;;;4.40;62.90;;;;;;5052765;28;20256;-65
2022/04/03 04:01:16;;;;;;;5.18;3.75;;;4.40;62.60;;;;;;5053035;28;20252;-64
2022/04/03 04:03:43;;;;;;;3.67;2.78;;;4.40;62.30;;;;;;5051565;28;20229;-65
2022/04/03 04:06:10;;;;;;;2.95;2.75;;;4.40;62.10;;;;;;5051643;28;20236;-64
2022/04/03 04:08:36;;;;;;;3.80;2.95;;;4.40;61.70;;;;;;5052931;28;20232;-65
2022/04/03 04:11:03;;;;;;;3.58;3.28;;;4.40;61.30;;;;;;5056682;28;20222;-64
2022/04/03 04:13:30;;;;;;;3.58;3.28;;;4.40;61.00;;;;;;5050949;28;20224;-64
2022/04/03 04:15:57;;;;;;;3.75;3.10;;;4.40;60.70;;;;;;5052419;28;20239;-64
2022/04/03 04:18:25;;;;;;;3.38;3.10;;;4.40;60.70;;;;;;5052779;28;20687;-64
2022/04/03 04:20:53;;;;;;;5.75;3.60;;;4.40;60.40;;;;;;5052659;28;20240;-64
2022/04/03 04:23:20;;;;;;;3.90;3.50;;;4.40;60.40;;;;;;5052040;28;20225;-64
2022/04/03 04:25:49;;;;;;;6.88;3.90;;;4.40;60.40;;;;;;5052666;28;20687;-64
2022/04/03 04:28:17;;;;;;;3.45;3.15;;;4.40;60.50;;;;;;5052230;28;20236;-65
2022/04/03 04:30:47;;;;;;;4.05;3.65;;;4.40;60.30;;;;;;5052599;28;20233;-65
2022/04/03 04:33:13;;;;;;;4.22;3.67;;;4.30;60.20;;;;;;5051821;28;20569;-65
2022/04/03 04:35:42;;;;;;;3.78;3.47;;;4.40;60.30;;;;;;5052566;28;20236;-64
2022/04/03 04:38:08;;;;;;;5.40;3.75;;;4.30;60.20;;;;;;5052556;28;20569;-65
2022/04/03 04:40:38;;;;;;;5.05;3.72;;;4.30;60.20;;;;;;5048738;28;20234;-65
2022/04/03 04:43:05;;;;;;;6.20;4.00;;;4.30;60.00;;;;;;5050459;28;20668;-65
2022/04/03 04:45:32;;;;;;;6.45;3.72;;;4.30;60.10;;;;;;5052044;28;20225;-64
2022/04/03 04:48:00;;;;;;;4.30;3.80;;;4.30;59.90;;;;;;5046655;28;20225;-64
2022/04/03 04:50:28;;;;;;;9.40;4.00;;;4.30;60.00;;;;;;5044289;28;20354;-64
2022/04/03 04:52:57;;;;;;;5.38;4.38;;;4.30;60.00;;;;;;5052065;28;20228;-65
2022/04/03 04:55:25;;;;;;;3.65;3.35;;;4.30;59.80;;;;;;5051976;28;20286;-65
2022/04/03 04:57:54;;;;;;;4.82;3.60;;;4.30;59.90;;;;;;5039276;28;20229;-65
2022/04/03 05:00:25;;;;;;;3.72;3.42;;;4.20;59.60;;;;;;5051652;28;20225;-64
2022/04/03 05:02:52;;;;;;;3.08;2.88;;;4.20;59.60;;;;;;5052335;28;20229;-65
2022/04/03 05:05:21;;;;;;;4.22;3.83;;;4.20;59.60;;;;;;5051830;28;20236;-65
2022/04/03 05:07:51;;;;;;;3.92;3.13;;;4.20;59.50;;;;;;5051035;28;20281;-64
2022/04/03 05:10:20;;;;;;;4.60;2.72;;;4.20;59.50;;;;;;5056245;28;20231;-65
2022/04/03 05:12:47;;;;;;;4.05;3.63;;;4.20;59.30;;;;;;5052135;28;20225;-64
2022/04/03 05:15:14;;;;;;;4.15;3.08;;;4.30;59.40;;;;;;5053072;28;20218;-64
2022/04/03 05:17:42;;;;;;;3.70;2.95;;;4.20;59.20;;;;;;5055930;28;20229;-65
2022/04/03 05:20:10;;;;;;;3.38;2.78;;;4.20;59.10;;;;;;5056125;28;20251;-64
2022/04/03 05:22:37;;;;;;;3.40;3.03;;;4.20;58.90;;;;;;5055809;28;20221;-64
2022/04/03 05:25:04;;;;;;;7.90;6.70;;;4.30;58.90;;;;;;5055438;28;20236;-65
2022/04/03 05:27:33;;;;;;;9.48;7.38;;;4.30;58.90;;;;;;5054439;28;20225;-65
2022/04/03 05:30:03;;;;;;;7.38;5.55;;;4.20;59.20;;;;;;5054126;28;20240;-65
2022/04/03 05:32:32;;;;;;;4.47;3.78;;;4.20;59.30;;;;;;5055542;28;20305;-65
2022/04/03 05:34:59;;;;;;;3.50;3.20;;;4.20;59.20;;;;;;5056055;28;20225;-65
2022/04/03 05:37:27;;;;;;;3.65;2.83;;;4.30;58.90;;;;;;5055590;28;20577;-65
2022/04/03 05:39:54;;;;;;;3.20;2.90;;;4.30;58.90;;;;;;5056142;28;20233;-65
2022/04/03 05:42:21;;;;;;;3.15;2.83;;;4.30;58.80;;;;;;5055381;28;20229;-65
2022/04/03 05:44:50;;;;;;;2.70;2.50;;;4.30;58.80;;;;;;5055911;28;20233;-65
2022/04/03 05:47:17;;;;;;;3.42;2.85;;;4.30;58.80;;;;;;5055443;28;20245;-65
2022/04/03 05:49:44;;;;;;;4.50;3.60;;;4.30;58.60;;;;;;5055827;28;20286;-65
2022/04/03 05:52:11;;;;;;;2.92;2.72;;;4.40;58.50;;;;;;5055621;28;20279;-65
2022/04/03 05:54:38;;;;;;;3.45;3.15;;;4.40;58.40;;;;;;5055398;28;20225;-65
2022/04/03 05:57:05;;;;;;;5.35;2.80;;;4.30;58.30;;;;;;5055611;28;20308;-64
2022/04/03 05:59:33;;;;;;;4.35;2.97;;;4.40;58.40;;;;;;5055155;28;20265;-64
2022/04/03 06:02:01;;;;;;;2.65;2.45;;;4.40;58.40;;;;;;5055240;28;20728;-64
2022/04/03 06:04:28;;;;;;;2.97;2.45;;;4.50;58.40;;;;;;5054975;28;20607;-64
2022/04/03 06:06:55;;;;;;;9.30;3.13;;;4.50;58.20;;;;;;5055505;28;20229;-64
2022/04/03 06:09:22;;;;;;;3.10;2.70;;;4.50;58.20;;;;;;5055059;28;20236;-64
2022/04/03 06:11:48;;;;;;;3.95;2.60;;;4.60;58.30;;;;;;5055269;28;20657;-64
2022/04/03 06:14:16;;;;;;;2.75;2.55;;;4.60;58.30;;;;;;5055474;28;20256;-64
2022/04/03 06:16:43;;;;;;;3.03;2.60;;;4.60;58.30;;;;;;5054722;28;20259;-63
2022/04/03 06:19:12;;;;;;;3.95;3.10;;;4.60;58.00;;;;;;5055154;28;20225;-64
2022/04/03 06:21:39;;;;;;;3.53;2.70;;;4.60;57.90;;;;;;5054764;28;20291;-64
2022/04/03 06:24:06;;;;;;;3.35;3.05;;;4.60;58.00;;;;;;5055053;28;20233;-64
2022/04/03 06:26:33;;;;;;;3.05;2.80;;;4.60;58.00;;;;;;5053435;28;20233;-64
2022/04/03 06:29:00;;;;;;;3.15;2.85;;;4.70;58.00;;;;;;5055203;28;20229;-64
2022/04/03 06:31:28;;;;;;;3.30;2.80;;;4.60;58.00;;;;;;5054320;28;20695;-64
2022/04/03 06:33:55;;;;;;;3.92;3.60;;;4.60;58.00;;;;;;5054920;28;20567;-64
2022/04/03 06:36:23;;;;;;;2.42;2.10;;;4.70;58.00;;;;;;5054653;28;20225;-65
2022/04/03 06:38:50;;;;;;;5.75;3.05;;;4.60;57.80;;;;;;5054753;28;20239;-64
2022/04/03 06:41:17;;;;;;;3.05;2.40;;;4.60;57.80;;;;;;5054674;28;20714;-65
2022/04/03 06:43:44;;;;;;;4.28;2.60;;;4.70;57.90;;;;;;5054424;28;20240;-64
2022/04/03 06:46:11;;;;;;;5.25;3.08;;;4.70;57.90;;;;;;5054706;28;20221;-63
2022/04/03 06:48:38;;;;;;;3.40;2.70;;;4.60;58.00;;;;;;5054116;28;20236;-64
2022/04/03 06:51:05;;;;;;;3.42;2.80;;;4.70;58.20;;;;;;5054595;28;20225;-64
2022/04/03 06:53:33;;;;;;;4.25;3.50;;;4.70;58.30;;;;;;5054068;28;20706;-63
2022/04/03 06:56:00;;;;;;;3.80;3.50;;;4.80;58.40;;;;;;5054612;28;20218;-64
2022/04/03 06:58:26;;;;;;;3.42;2.92;;;4.90;58.40;;;;;;5054011;28;20235;-64
2022/04/03 07:00:53;;;;;;;3.15;2.95;;;4.90;58.30;;;;;;5054465;28;20233;-63
2022/04/03 07:03:20;;;;;;;2.65;2.45;;;5.00;58.30;;;;;;5054455;28;20251;-64
2022/04/03 07:05:48;;;;;;;3.40;3.10;;;5.10;58.30;;;;;;5053990;28;20213;-65
2022/04/03 07:08:15;;;;;;;5.82;2.90;;;5.20;57.80;;;;;;5054230;28;20220;-64
2022/04/03 07:10:45;;;;;;;3.33;2.72;;;5.30;57.80;;;;;;5053828;28;20225;-64
2022/04/03 07:13:12;;;;;;;3.20;2.72;;;5.40;57.80;;;;;;5054278;28;20217;-64
2022/04/03 07:15:40;;;;;;;2.47;2.28;;;5.40;57.70;;;;;;5053627;28;20228;-64
2022/04/03 07:18:07;;;;;;;4.53;3.25;;;5.50;57.40;;;;;;5054264;28;20224;-64
2022/04/03 07:20:35;;;;;;;3.63;3.33;;;5.60;57.30;;;;;;5053511;28;20225;-65
2022/04/03 07:23:02;;;;;;;4.20;2.85;;;5.70;57.20;;;;;;5053960;28;20312;-64
2022/04/03 07:25:30;;;;;;;2.90;2.50;;;5.80;57.00;;;;;;5053262;28;20598;-65
2022/04/03 07:27:58;;;;;;;3.25;2.45;;;5.80;56.50;;;;;;5053881;28;20241;-65
2022/04/03 07:30:25;;;;;;;3.67;2.85;;;5.90;56.50;;;;;;5053296;28;20305;-65
2022/04/03 07:32:51;;;;;;;2.72;2.47;;;6.00;56.40;;;;;;5053974;28;20554;-64
2022/04/03 07:35:18;;;;;;;3.17;2.88;;;6.10;56.20;;;;;;5053855;28;20221;-65
2022/04/03 07:37:45;;;;;;;2.58;2.38;;;6.20;56.20;;;;;;5053161;28;20229;-65
2022/04/03 07:40:13;;;;;;;4.50;2.65;;;6.20;55.80;;;;;;5053695;28;20221;-64
2022/04/03 07:42:40;;;;;;;3.63;2.72;;;6.30;55.90;;;;;;5053178;28;20228;-64
2022/04/03 07:45:11;;;;;;;3.42;3.10;;;6.30;55.70;;;;;;5053569;28;20232;-64
2022/04/03 07:47:46;;;;;;;3.70;3.08;;;6.40;55.60;;;;;;5053173;28;20221;-64
2022/04/03 07:50:13;;;;;;;4.78;3.60;;;6.50;55.60;;;;;;5053469;28;20289;-64
2022/04/03 07:52:41;;;;;;;5.15;3.72;;;6.50;55.70;;;;;;5053066;28;20705;-64
2022/04/03 07:55:10;;;;;;;4.18;3.78;;;6.60;55.60;;;;;;5053625;28;20213;-64
2022/04/03 07:57:37;;;;;;;5.40;3.70;;;6.60;55.70;;;;;;5053076;28;20321;-64
2022/04/03 08:00:06;;;;;;;3.40;3.00;;;6.60;55.70;;;;;;5053305;28;20223;-64
2022/04/03 08:02:34;;;;;;;3.65;2.83;;;6.70;56.00;;;;;;5052810;28;20266;-64
2022/04/03 08:05:02;;;;;;;4.65;3.05;;;6.70;56.10;;;;;;5053166;28;20231;-65
2022/04/03 08:07:36;;;;;;;3.13;2.83;;;6.70;56.20;;;;;;5052754;28;20585;-64
2022/04/03 08:10:04;;;;;;;3.25;3.05;;;6.80;56.20;;;;;;5053267;28;20228;-63
2022/04/03 08:12:30;;;;;;;4.15;3.67;;;6.90;56.20;;;;;;5052779;28;20805;-65
2022/04/03 08:14:57;;;;;;;2.63;2.00;;;6.90;56.20;;;;;;5053174;28;20221;-65
2022/04/03 08:17:25;;;;;;;4.32;3.22;;;6.90;56.00;;;;;;5052976;28;20225;-65
2022/04/03 08:19:53;;;;;;;2.60;2.05;;;7.00;56.20;;;;;;5052695;28;20225;-65
2022/04/03 08:22:20;;;;;;;2.55;2.25;;;7.00;56.10;;;;;;5052780;28;20220;-64
2022/04/03 08:24:48;;;;;;;3.85;2.38;;;7.00;55.90;;;;;;5052434;28;20228;-65
2022/04/03 08:27:15;;;;;;;2.92;2.30;;;7.10;55.80;;;;;;5052765;28;20564;-64
2022/04/03 08:29:42;;;;;;;3.35;2.25;;;7.20;55.80;;;;;;5052411;28;20216;-65
2022/04/03 08:32:09;;;;;;;3.22;2.72;;;7.30;55.80;;;;;;5052842;28;20228;-65
2022/04/03 08:34:36;;;;;;;2.47;2.05;;;7.30;55.60;;;;;;5052367;28;20232;-65
2022/04/03 08:37:04;;;;;;;2.45;1.83;;;7.40;55.40;;;;;;5052637;28;20304;-65
2022/04/03 08:39:31;;;;;;;2.97;2.22;;;7.40;55.20;;;;;;5052385;28;20717;-66
2022/04/03 08:41:58;;;;;;;2.95;2.35;;;7.40;54.90;;;;;;5052532;28;20224;-65
2022/04/03 08:44:25;;;;;;;2.60;2.40;;;7.50;54.60;;;;;;5052544;28;20568;-65
2022/04/03 08:46:54;;;;;;;3.60;2.38;;;7.50;54.30;;;;;;5052268;28;20679;-65
2022/04/03 08:49:22;;;;;;;2.08;1.88;;;7.60;54.20;;;;;;5051925;28;20228;-65
2022/04/03 08:51:50;;;;;;;4.85;2.70;;;7.60;53.60;;;;;;5052116;28;20575;-64
2022/04/03 08:54:21;;;;;;;4.35;1.90;;;7.70;53.60;;;;;;5052609;28;20220;-65
2022/04/03 08:56:48;;;;;;;3.22;2.38;;;7.80;53.10;;;;;;5052086;28;20232;-65
2022/04/03 08:59:15;;;;;;;3.50;1.75;;;7.90;52.30;;;;;;5052427;28;20224;-65
2022/04/03 09:01:42;;;;;;;3.55;2.38;;;7.90;51.50;;;;;;5052076;28;20294;-65
2022/04/03 09:04:09;;;;;;;3.88;2.50;;;7.90;51.60;;;;;;5052372;28;20217;-65
2022/04/03 09:06:39;;;;;;;3.92;2.88;;;8.10;51.70;;;;;;5052052;28;20224;-64
2022/04/03 09:09:06;;;;;;;4.18;2.95;;;8.10;51.60;;;;;;5052588;28;20224;-64
2022/04/03 09:11:34;;;;;;;3.45;2.80;;;8.20;51.20;;;;;;5051891;28;20224;-64
2022/04/03 09:14:11;;;;;;;2.83;2.20;;;8.30;50.60;;;;;;5052385;28;20545;-64
2022/04/03 09:16:39;;;;;;;2.47;2.05;;;8.30;50.70;;;;;;5051925;28;20335;-64
2022/04/03 09:19:06;;;;;;;2.17;1.98;;;8.40;50.50;;;;;;5052418;28;20255;-65
2022/04/03 09:21:35;;;;;;;2.80;2.60;;;8.40;50.50;;;;;;5051815;28;20280;-64
2022/04/03 09:24:06;;;;;;;2.63;1.98;;;8.50;50.50;;;;;;5052445;28;20279;-65
2022/04/03 09:26:36;;;;;;;3.58;2.20;;;8.60;50.20;;;;;;5051755;28;20251;-65
2022/04/03 09:29:14;;;;;;;2.42;2.22;;;8.60;49.70;;;;;;5052172;28;20221;-64
2022/04/03 09:31:42;;;;;;;2.20;2.00;;;8.50;48.80;;;;;;5051530;28;20233;-64
2022/04/03 09:34:16;;;;;;;2.78;2.40;;;8.60;48.80;;;;;;5052244;28;20231;-64
2022/04/03 09:36:43;;;;;;;2.50;2.30;;;8.60;49.10;;;;;;5051886;28;20626;-65
2022/04/03 09:39:12;;;;;;;2.55;2.22;;;8.70;48.90;;;;;;5052102;28;20217;-65
2022/04/03 09:42:01;;;;;;;2.60;2.20;;;8.70;48.50;;;;;;5051623;28;20263;-66
2022/04/03 09:44:31;;;;;;;2.67;1.70;;;8.80;47.90;;;;;;5052178;28;20231;-64
2022/04/03 09:47:21;;;;;;;1.83;1.73;;;8.80;47.60;;;;;;5051771;28;20217;-65
2022/04/03 09:49:57;;;;;;;3.88;2.28;;;8.90;47.50;;;;;;5051717;28;20232;-66
2022/04/03 09:52:41;;;;;;;2.85;2.17;;;8.90;47.50;;;;;;5051902;28;20308;-64
2022/04/03 09:55:19;;;;;;;3.10;2.80;;;9.00;47.30;;;;;;5051829;28;20651;-64
2022/04/03 09:57:49;;;;;;;5.57;5.03;;;9.00;46.70;;;;;;5051528;28;20228;-65
2022/04/03 10:00:29;;;;;;;4.32;3.08;;;9.00;46.20;;;;;;5051978;28;20221;-64
2022/04/03 10:03:01;;;;;;;7.25;5.38;;;9.00;45.70;;;;;;5053934;28;20224;-65
2022/04/03 10:05:30;;;;;;;4.60;3.70;;;9.00;45.70;;;;;;5055502;28;20665;-65
2022/04/03 10:08:01;;;;;;;5.60;3.70;;;9.00;45.10;;;;;;5054989;28;20232;-66
2022/04/03 10:10:29;;;;;;;4.65;3.67;;;9.10;45.40;;;;;;5055194;28;20231;-64
2022/04/03 10:12:58;;;;;;;2.83;2.35;;;9.10;45.40;;;;;;5055075;28;20229;-64
2022/04/03 10:15:27;;;;;;;3.40;1.90;;;9.10;45.30;;;;;;5055302;28;20217;-64
2022/04/03 10:17:55;;;;;;;1.95;1.85;;;9.20;45.40;;;;;;5054771;28;20835;-65
2022/04/03 10:20:25;;;;;;;2.78;2.20;;;9.20;45.30;;;;;;5055210;28;20221;-65
2022/04/03 10:22:56;;;;;;;2.45;2.10;;;9.30;45.50;;;;;;5054876;28;20470;-65
2022/04/03 10:25:28;;;;;;;1.75;1.65;;;9.30;45.50;;;;;;5055130;28;20228;-64
2022/04/03 10:28:01;;;;;;;2.13;1.92;;;9.40;45.70;;;;;;5054747;28;20310;-64
2022/04/03 10:30:35;;;;;;;6.25;2.50;;;9.40;45.30;;;;;;5055100;28;20355;-65
2022/04/03 10:33:02;;;;;;;7.78;2.08;;;9.30;45.20;;;;;;5054638;28;20588;-65
2022/04/03 10:35:29;;;;;;;5.80;3.95;;;9.30;44.70;;;;;;5054797;28;20221;-64
2022/04/03 10:38:01;;;;;;;3.63;3.33;;;9.40;44.70;;;;;;5054617;28;20217;-65
2022/04/03 10:40:31;;;;;;;6.18;2.45;;;9.40;44.60;;;;;;5054820;28;20224;-64
2022/04/03 10:43:02;;;;;;;2.30;2.10;;;9.50;44.40;;;;;;5054391;28;20228;-65
2022/04/03 10:45:32;;;;;;;4.28;3.65;;;9.60;44.50;;;;;;5054799;28;20232;-65
2022/04/03 10:48:27;;;;;;;5.88;5.28;;;9.60;43.70;;;;;;5054205;28;20230;-64
2022/04/03 10:51:26;;;;;;;3.33;3.05;;;9.60;43.70;;;;;;5054177;28;20680;-65
2022/04/03 10:54:09;;;;;;;3.45;3.20;;;9.70;43.10;;;;;;5046324;28;20225;-65
2022/04/03 10:56:36;;;;;;;2.53;2.17;;;9.70;42.70;;;;;;5054702;28;20222;-65
2022/04/03 10:59:11;;;;;;;2.67;2.13;;;9.70;42.40;;;;;;5054075;28;20228;-64
2022/04/03 11:01:38;;;;;;;6.20;2.88;;;9.60;42.30;;;;;;5054105;28;20220;-65
2022/04/03 11:04:10;;;;;;;4.05;2.10;;;9.50;42.20;;;;;;5053835;28;20693;-65
2022/04/03 11:06:39;;;;;;;2.67;2.40;;;9.60;42.20;;;;;;5054192;28;20289;-64
2022/04/03 11:09:11;;;;;;;4.93;2.88;;;9.60;42.30;;;;;;5053688;28;20259;-65
2022/04/03 11:11:44;;;;;;;2.40;2.20;;;9.70;42.30;;;;;;5054101;28;20224;-65
2022/04/03 11:14:34;;;;;;;3.38;2.40;;;9.70;42.30;;;;;;5053356;28;20271;-65
2022/04/03 11:17:01;;;;;;;5.93;2.42;;;9.80;42.20;;;;;;5053590;28;20239;-65
2022/04/03 11:19:41;;;;;;;3.20;2.33;;;9.80;42.30;;;;;;5054125;28;20232;-65
2022/04/03 11:22:11;;;;;;;3.08;2.38;;;9.80;42.30;;;;;;5053612;28;20231;-65
2022/04/03 11:24:38;;;;;;;3.28;2.13;;;9.80;42.10;;;;;;5054136;28;20335;-65
2022/04/03 11:27:06;;;;;;;2.75;2.45;;;9.90;42.00;;;;;;5053329;28;20224;-65
2022/04/03 11:29:35;;;;;;;4.90;2.28;;;9.90;42.20;;;;;;5053893;28;20224;-65
2022/04/03 11:32:06;;;;;;;3.05;2.75;;;10.00;41.50;;;;;;5053193;28;20248;-65
2022/04/03 11:34:33;;;;;;;5.10;2.17;;;10.10;41.80;;;;;;5053839;28;20267;-65
2022/04/03 11:37:02;;;;;;;4.15;2.92;;;10.20;41.70;;;;;;5053401;28;20228;-66
2022/04/03 11:39:33;;;;;;;2.63;2.20;;;10.20;41.30;;;;;;5053628;28;20317;-64
2022/04/03 11:42:04;;;;;;;2.85;2.45;;;10.30;41.10;;;;;;5053173;28;20297;-65
2022/04/03 11:44:30;;;;;;;2.33;2.13;;;10.30;41.10;;;;;;5053718;28;20744;-66
2022/04/03 11:47:00;;;;;;;3.05;2.63;;;10.30;41.30;;;;;;5052870;28;20229;-65
2022/04/03 11:49:29;;;;;;;4.72;2.30;;;10.20;41.70;;;;;;5053701;28;20286;-65
2022/04/03 11:51:58;;;;;;;2.50;2.30;;;10.20;41.90;;;;;;5053153;28;20367;-65
2022/04/03 11:54:25;;;;;;;5.03;3.20;;;10.20;41.50;;;;;;5053396;28;20245;-66
2022/04/03 11:56:59;;;;;;;3.78;2.53;;;10.30;41.60;;;;;;5052934;28;20255;-65
2022/04/03 11:59:27;;;;;;;4.35;1.63;;;10.20;41.30;;;;;;5053465;28;20638;-65
2022/04/03 12:01:54;;;;;;;2.45;2.25;;;10.30;41.40;;;;;;5052733;28;20239;-66
2022/04/03 12:04:28;;;;;;;2.60;2.00;;;10.30;41.40;;;;;;5053249;28;20612;-66
2022/04/03 12:06:59;;;;;;;3.15;2.22;;;10.40;41.80;;;;;;5052799;28;20281;-65
2022/04/03 12:09:27;;;;;;;3.65;2.28;;;10.40;41.80;;;;;;5053060;28;20232;-65
2022/04/03 12:11:56;;;;;;;3.90;2.63;;;10.40;41.90;;;;;;5052672;28;20232;-65
2022/04/03 12:14:25;;;;;;;3.40;2.30;;;10.50;42.30;;;;;;5053126;28;20225;-65
2022/04/03 12:16:58;;;;;;;2.25;1.88;;;10.40;42.50;;;;;;5052607;28;20559;-64
2022/04/03 12:19:27;;;;;;;3.08;2.75;;;10.40;42.60;;;;;;5043558;28;20229;-65
2022/04/03 12:21:56;;;;;;;6.40;5.13;;;10.40;42.70;;;;;;5032297;28;20233;-65
2022/04/03 12:24:24;;;;;;;4.70;2.97;;;10.30;43.00;;;;;;5031059;28;20222;-65
2022/04/03 12:26:54;;;;;;;3.03;2.40;;;10.30;43.10;;;;;;5031813;28;20269;-65
2022/04/03 12:29:22;;;;;;;4.13;2.50;;;10.30;42.80;;;;;;5031593;28;20233;-64
2022/04/03 12:32:00;;;;;;;3.83;2.15;;;10.40;42.60;;;;;;5031911;28;20240;-64
2022/04/03 12:34:29;;;;;;;2.85;2.60;;;10.40;42.60;;;;;;5031812;28;20228;-65
2022/04/03 12:36:58;;;;;;;3.80;2.67;;;10.50;42.70;;;;;;5032585;28;20696;-65
2022/04/03 12:39:43;;;;;;;3.47;2.17;;;10.50;42.80;;;;;;5032427;28;20225;-64
2022/04/03 12:42:17;;;;;;;2.70;2.50;;;10.50;43.00;;;;;;5032315;28;20228;-65
2022/04/03 12:44:50;;;;;;;3.45;2.13;;;10.60;43.20;;;;;;5032914;28;20253;-65
2022/04/03 12:47:19;;;;;;;2.55;2.10;;;10.60;43.20;;;;;;5032167;28;20243;-65
2022/04/03 12:49:51;;;;;;;3.95;2.40;;;10.70;43.10;;;;;;5032359;28;20232;-65
2022/04/03 12:52:38;;;;;;;2.80;2.38;;;10.70;42.70;;;;;;5032171;28;20441;-64
2022/04/03 12:55:06;;;;;;;3.38;3.08;;;10.70;42.90;;;;;;5032046;28;20750;-64
2022/04/03 13:00:18;;;;;;;5.70;3.72;;;10.80;43.00;;;;;;5032259;28;20302;-64
2022/04/03 13:02:46;;;;;;;3.13;2.38;;;10.80;43.20;;;;;;5032668;28;20327;-65
2022/04/03 13:05:15;;;;;;;5.07;3.03;;;10.90;43.40;;;;;;5032210;28;20225;-65